createdAt,value
2024-02-16T00:01:51.328Z,21.45
2024-02-16T00:04:23.359Z,20.83
2024-02-16T00:06:55.404Z,21.38
2024-02-16T00:09:28.836Z,17.10
2024-02-16T00:12:00.918Z,18.55
2024-02-16T00:14:32.873Z,16.15
2024-02-16T00:17:05.806Z,18.35
2024-02-16T00:19:37.964Z,19.50
2024-02-16T00:22:10.024Z,18.95
2024-02-16T00:24:41.941Z,18.38
2024-02-16T00:27:15.488Z,19.52
2024-02-16T00:29:50.403Z,16.95
2024-02-16T00:32:25.404Z,19.48
2024-02-16T00:34:58.827Z,22.70
2024-02-16T00:37:30.827Z,23.42
2024-02-16T00:40:02.775Z,19.88
2024-02-16T00:42:34.877Z,18.90
2024-02-16T00:45:07.246Z,20.88
2024-02-16T00:47:41.252Z,19.20
2024-02-16T00:50:13.425Z,19.58
2024-02-16T00:52:47.003Z,23.35
2024-02-16T00:55:19.783Z,24.35
2024-02-16T00:57:51.715Z,19.77
2024-02-16T01:00:25.130Z,18.40
2024-02-16T01:02:57.539Z,21.63
2024-02-16T01:05:29.508Z,18.40
2024-02-16T01:08:01.731Z,16.23
2024-02-16T01:10:33.661Z,21.15
2024-02-16T01:13:06.805Z,19.52
2024-02-16T01:15:38.791Z,16.45
2024-02-16T01:18:10.906Z,20.67
2024-02-16T01:20:42.942Z,19.70
2024-02-16T01:23:14.855Z,19.83
2024-02-16T01:25:47.706Z,18.98
2024-02-16T01:28:19.617Z,20.33
2024-02-16T01:30:52.013Z,17.02
2024-02-16T01:33:24.181Z,20.63
2024-02-16T01:35:56.114Z,21.55
2024-02-16T01:38:27.974Z,15.77
2024-02-16T01:40:59.828Z,18.27
2024-02-16T01:43:32.289Z,18.13
2024-02-16T01:46:04.181Z,17.23
2024-02-16T01:48:36.293Z,15.07
2024-02-16T01:51:10.180Z,18.60
2024-02-16T01:53:42.310Z,14.57
2024-02-16T01:56:14.185Z,17.27
2024-02-16T01:58:46.009Z,17.05
2024-02-16T02:01:17.894Z,14.80
2024-02-16T02:03:49.904Z,15.50
2024-02-16T02:06:22.920Z,17.70
2024-02-16T02:08:54.904Z,18.60
2024-02-16T02:11:26.756Z,15.88
2024-02-16T02:13:58.677Z,15.95
2024-02-16T02:16:33.676Z,16.67
2024-02-16T02:19:09.980Z,17.63
2024-02-16T02:21:42.311Z,17.58
2024-02-16T02:24:14.513Z,19.00
2024-02-16T02:26:47.200Z,14.52
2024-02-16T02:29:19.146Z,16.50
2024-02-16T02:31:50.970Z,19.20
2024-02-16T02:34:22.944Z,16.95
2024-02-16T02:36:54.812Z,18.08
2024-02-16T02:39:27.223Z,16.52
2024-02-16T02:41:59.361Z,16.80
2024-02-16T02:44:32.857Z,17.73
2024-02-16T02:47:04.803Z,17.58
2024-02-16T02:49:37.067Z,18.83
2024-02-16T02:52:09.183Z,18.48
2024-02-16T02:54:41.064Z,20.05
2024-02-16T02:57:12.889Z,15.13
2024-02-16T02:59:46.641Z,18.98
2024-02-16T03:02:18.512Z,25.48
2024-02-16T03:04:50.312Z,17.17
2024-02-16T03:07:22.135Z,17.20
2024-02-16T03:09:54.325Z,17.20
2024-02-16T03:12:26.371Z,17.52
2024-02-16T03:14:58.190Z,20.45
2024-02-16T03:17:30.135Z,18.65
2024-02-16T03:20:01.983Z,18.30
2024-02-16T03:22:33.763Z,20.98
2024-02-16T03:25:06.582Z,17.52
2024-02-16T03:27:38.722Z,19.50
2024-02-16T03:30:11.992Z,19.10
2024-02-16T03:32:43.969Z,18.50
2024-02-16T03:35:15.933Z,22.35
2024-02-16T03:37:47.759Z,15.95
2024-02-16T03:40:19.823Z,21.05
2024-02-16T03:42:54.841Z,19.75
2024-02-16T03:45:28.484Z,18.15
2024-02-16T03:48:00.946Z,18.52
2024-02-16T03:50:32.929Z,20.50
2024-02-16T03:53:05.611Z,17.20
2024-02-16T03:55:37.915Z,24.33
2024-02-16T03:58:09.736Z,17.73
2024-02-16T04:00:41.714Z,18.23
2024-02-16T04:03:13.610Z,19.17
2024-02-16T04:05:45.664Z,19.15
2024-02-16T04:08:17.445Z,21.73
2024-02-16T04:10:49.351Z,17.48
2024-02-16T04:13:21.141Z,18.05
2024-02-16T04:15:55.244Z,20.40
2024-02-16T04:18:27.864Z,21.55
2024-02-16T04:20:59.754Z,21.98
2024-02-16T04:23:31.583Z,24.33
2024-02-16T04:26:03.443Z,21.65
2024-02-16T04:28:36.319Z,19.67
2024-02-16T04:31:08.094Z,19.90
2024-02-16T04:33:40.177Z,20.20
2024-02-16T04:36:12.140Z,18.20
2024-02-16T04:38:44.038Z,19.17
2024-02-16T04:41:16.525Z,19.35
2024-02-16T04:43:48.331Z,21.08
2024-02-16T04:46:20.770Z,18.60
2024-02-16T04:48:52.636Z,16.67
2024-02-16T04:51:24.552Z,20.98
2024-02-16T04:53:56.372Z,23.90
2024-02-16T04:56:28.255Z,19.98
2024-02-16T04:59:00.122Z,19.17
2024-02-16T05:01:32.838Z,19.10
2024-02-16T05:04:05.149Z,18.98
2024-02-16T05:06:41.502Z,20.67
2024-02-16T05:09:13.576Z,21.80
2024-02-16T05:11:46.129Z,21.15
2024-02-16T05:14:18.108Z,25.33
2024-02-16T05:16:51.561Z,22.48
2024-02-16T05:19:24.645Z,21.38
2024-02-16T05:21:56.969Z,21.88
2024-02-16T05:24:28.949Z,20.73
2024-02-16T05:27:00.896Z,20.92
2024-02-16T05:29:32.732Z,22.65
2024-02-16T05:32:04.777Z,20.80
2024-02-16T05:34:39.649Z,22.40
2024-02-16T05:37:11.751Z,20.95
2024-02-16T05:40:09.611Z,22.23
2024-02-16T05:42:41.418Z,22.27
2024-02-16T05:45:13.235Z,23.63
2024-02-16T05:47:49.175Z,22.33
2024-02-16T05:50:23.915Z,23.05
2024-02-16T05:52:56.550Z,22.20
2024-02-16T05:55:28.352Z,22.90
2024-02-16T05:58:00.146Z,24.02
2024-02-16T06:00:36.166Z,22.42
2024-02-16T06:03:08.730Z,24.25
2024-02-16T06:05:41.902Z,22.48
2024-02-16T06:08:14.196Z,23.20
2024-02-16T06:10:52.407Z,23.58
2024-02-16T06:13:24.445Z,26.23
2024-02-16T06:15:56.461Z,23.55
2024-02-16T06:18:31.089Z,24.60
2024-02-16T06:21:03.520Z,21.88
2024-02-16T06:23:35.319Z,23.40
2024-02-16T06:26:08.111Z,27.25
2024-02-16T06:28:39.976Z,24.67
2024-02-16T06:31:12.245Z,24.85
2024-02-16T06:33:44.288Z,25.90
2024-02-16T06:36:16.157Z,26.08
2024-02-16T06:38:48.018Z,32.03
2024-02-16T06:41:19.940Z,26.70
2024-02-16T06:43:51.744Z,28.45
2024-02-16T06:46:23.756Z,22.15
2024-02-16T06:48:57.957Z,25.17
2024-02-16T06:51:30.079Z,24.88
2024-02-16T06:54:02.304Z,21.08
2024-02-16T06:56:34.662Z,24.73
2024-02-16T06:59:06.476Z,22.67
2024-02-16T07:01:38.322Z,20.75
2024-02-16T07:04:10.716Z,24.60
2024-02-16T07:06:42.712Z,25.08
2024-02-16T07:09:17.674Z,24.30
2024-02-16T07:11:54.228Z,25.08
2024-02-16T07:14:26.370Z,23.17
2024-02-16T07:16:58.163Z,20.02
2024-02-16T07:19:30.330Z,22.27
2024-02-16T07:22:02.174Z,22.40
2024-02-16T07:24:34.784Z,29.02
2024-02-16T07:27:06.685Z,21.67
2024-02-16T07:29:40.354Z,26.52
2024-02-16T07:32:13.779Z,23.88
2024-02-16T07:34:49.677Z,23.80
2024-02-16T07:37:21.513Z,27.13
2024-02-16T07:39:54.025Z,25.15
2024-02-16T07:42:25.890Z,27.42
2024-02-16T07:44:57.690Z,27.95
2024-02-16T07:47:29.658Z,26.20
2024-02-16T07:50:01.672Z,25.00
2024-02-16T07:52:33.634Z,25.13
2024-02-16T07:55:06.561Z,24.63
2024-02-16T07:57:38.490Z,29.60
2024-02-16T08:00:12.291Z,23.35
2024-02-16T08:02:47.264Z,21.05
2024-02-16T08:05:20.820Z,25.25
2024-02-16T08:07:52.957Z,21.10
2024-02-16T08:10:26.488Z,22.65
2024-02-16T08:12:58.339Z,26.30
2024-02-16T08:15:30.730Z,20.40
2024-02-16T08:18:02.778Z,25.33
2024-02-16T08:20:34.849Z,24.88
2024-02-16T08:23:06.619Z,21.85
2024-02-16T08:25:38.483Z,25.08
2024-02-16T08:28:10.286Z,25.55
2024-02-16T08:30:45.398Z,21.90
2024-02-16T08:33:17.841Z,20.83
2024-02-16T08:35:51.781Z,22.27
2024-02-16T08:38:23.691Z,25.67
2024-02-16T08:40:55.463Z,24.23
2024-02-16T08:43:27.261Z,21.27
2024-02-16T08:45:59.064Z,22.70
2024-02-16T08:48:31.005Z,22.77
2024-02-16T08:51:03.853Z,25.77
2024-02-16T08:53:36.093Z,22.38
2024-02-16T08:56:12.940Z,24.33
2024-02-16T08:58:44.823Z,30.90
2024-02-16T09:01:19.777Z,28.05
2024-02-16T09:03:51.818Z,24.00
2024-02-16T09:06:23.736Z,22.92
2024-02-16T09:08:56.606Z,30.25
2024-02-16T09:11:29.254Z,25.02
2024-02-16T09:14:01.846Z,23.30
2024-02-16T09:16:33.675Z,21.33
2024-02-16T09:19:05.786Z,25.33
2024-02-16T09:21:37.782Z,24.35
2024-02-16T09:24:11.936Z,21.70
2024-02-16T09:26:43.902Z,22.45
2024-02-16T09:29:15.840Z,24.20
2024-02-16T09:31:50.762Z,26.92
2024-02-16T09:34:22.636Z,23.92
2024-02-16T09:36:54.501Z,29.08
2024-02-16T09:39:28.550Z,26.10
2024-02-16T09:42:00.518Z,23.60
2024-02-16T09:44:36.733Z,25.65
2024-02-16T09:47:12.966Z,25.60
2024-02-16T09:49:44.982Z,24.02
2024-02-16T09:52:16.847Z,25.58
2024-02-16T09:54:48.841Z,25.83
2024-02-16T09:57:20.815Z,28.65
2024-02-16T09:59:52.742Z,25.20
2024-02-16T10:02:25.186Z,25.17
2024-02-16T10:04:58.146Z,23.30
2024-02-16T10:07:34.273Z,23.63
2024-02-16T10:10:15.403Z,22.52
2024-02-16T10:12:47.201Z,22.40
2024-02-16T10:15:26.343Z,29.55
2024-02-16T10:18:05.688Z,19.13
2024-02-16T10:20:40.159Z,21.90
2024-02-16T10:23:13.071Z,24.45
2024-02-16T10:25:44.870Z,24.95
2024-02-16T10:28:18.211Z,25.52
2024-02-16T10:30:50.378Z,20.98
2024-02-16T10:33:22.533Z,25.10
2024-02-16T10:35:57.197Z,24.80
2024-02-16T10:38:30.771Z,22.15
2024-02-16T10:41:02.992Z,17.90
2024-02-16T10:43:34.861Z,21.17
2024-02-16T10:46:06.900Z,19.13
2024-02-16T10:48:38.878Z,20.13
2024-02-16T10:51:12.980Z,21.05
2024-02-16T10:53:45.900Z,17.13
2024-02-16T10:56:17.803Z,19.10
2024-02-16T10:58:50.503Z,22.15
2024-02-16T11:01:23.415Z,22.42
2024-02-16T11:04:03.886Z,19.20
2024-02-16T11:06:57.988Z,19.70
2024-02-16T11:09:31.409Z,34.75
2024-02-16T11:12:05.598Z,22.25
2024-02-16T11:14:41.802Z,21.52
2024-02-16T11:17:15.504Z,17.77
2024-02-16T11:19:48.989Z,24.52
2024-02-16T11:22:21.856Z,19.55
2024-02-16T11:24:57.447Z,23.25
2024-02-16T11:27:33.099Z,22.27
2024-02-16T11:30:06.509Z,21.27
2024-02-16T11:32:38.522Z,22.80
2024-02-16T11:35:10.618Z,17.98
2024-02-16T11:37:43.537Z,19.50
2024-02-16T11:40:15.402Z,18.05
2024-02-16T11:42:48.347Z,17.27
2024-02-16T11:45:20.337Z,19.92
2024-02-16T11:47:52.181Z,23.15
2024-02-16T11:50:24.096Z,17.83
2024-02-16T11:52:56.297Z,25.35
2024-02-16T11:55:28.211Z,20.33
2024-02-16T11:58:00.211Z,22.45
2024-02-16T12:00:32.115Z,22.20
2024-02-16T12:03:04.197Z,23.38
2024-02-16T12:05:36.141Z,19.33
2024-02-16T12:08:09.017Z,20.42
2024-02-16T12:10:40.885Z,20.98
2024-02-16T12:13:12.716Z,22.65
2024-02-16T12:15:49.454Z,20.08
2024-02-16T12:18:26.121Z,19.73
2024-02-16T12:21:08.029Z,18.38
2024-02-16T12:23:40.124Z,20.10
2024-02-16T12:26:11.915Z,20.27
2024-02-16T12:28:44.084Z,22.30
2024-02-16T12:31:22.580Z,21.60
2024-02-16T12:33:54.700Z,21.23
2024-02-16T12:36:27.805Z,25.50
2024-02-16T12:38:59.691Z,24.23
2024-02-16T12:41:32.408Z,19.52
2024-02-16T12:44:04.269Z,17.65
2024-02-16T12:46:36.130Z,22.25
2024-02-16T12:49:08.566Z,23.75
2024-02-16T12:51:40.908Z,21.05
2024-02-16T12:54:15.633Z,19.27
2024-02-16T12:56:48.762Z,18.05
2024-02-16T12:59:20.593Z,16.83
2024-02-16T13:01:52.534Z,18.63
2024-02-16T13:04:24.530Z,22.73
2024-02-16T13:06:56.579Z,17.63
2024-02-16T13:09:29.946Z,17.38
2024-02-16T13:12:01.804Z,18.50
2024-02-16T13:14:33.628Z,18.25
2024-02-16T13:17:05.754Z,20.88
2024-02-16T13:19:37.660Z,15.43
2024-02-16T13:22:09.493Z,15.63
2024-02-16T13:24:42.908Z,15.00
2024-02-16T13:27:14.928Z,14.90
2024-02-16T13:29:46.791Z,15.52
2024-02-16T13:32:18.641Z,17.35
2024-02-16T13:34:50.460Z,20.23
2024-02-16T13:37:22.249Z,13.55
2024-02-16T13:39:54.021Z,12.52
2024-02-16T13:42:27.650Z,15.77
2024-02-16T13:44:59.797Z,14.45
2024-02-16T13:47:32.152Z,14.60
2024-02-16T13:50:04.192Z,13.50
2024-02-16T13:52:36.555Z,11.07
2024-02-16T13:55:09.586Z,11.93
2024-02-16T13:57:41.590Z,16.58
2024-02-16T14:00:14.036Z,17.88
2024-02-16T14:02:45.989Z,13.02
2024-02-16T14:05:18.012Z,19.40
2024-02-16T14:07:57.722Z,13.35
2024-02-16T14:10:36.163Z,15.23
2024-02-16T14:13:08.004Z,11.75
2024-02-16T14:15:39.938Z,14.15
2024-02-16T14:18:17.330Z,13.35
2024-02-16T14:20:54.112Z,11.80
2024-02-16T14:23:25.947Z,17.63
2024-02-16T14:25:58.201Z,18.25
2024-02-16T14:28:30.004Z,12.40
2024-02-16T14:31:01.837Z,14.05
2024-02-16T14:33:35.011Z,11.35
2024-02-16T14:36:10.825Z,13.15
2024-02-16T14:38:42.778Z,11.20
2024-02-16T14:41:15.049Z,13.93
2024-02-16T14:43:47.749Z,10.43
2024-02-16T14:46:21.391Z,11.07
2024-02-16T14:48:53.398Z,10.77
2024-02-16T14:51:25.340Z,11.20
2024-02-16T14:53:57.151Z,12.95
2024-02-16T14:56:30.277Z,10.98
2024-02-16T14:59:02.133Z,11.73
2024-02-16T15:01:34.025Z,16.13
2024-02-16T15:04:06.406Z,12.23
2024-02-16T15:06:38.569Z,13.75
2024-02-16T15:09:11.680Z,15.52
2024-02-16T15:11:43.616Z,17.90
2024-02-16T15:14:18.411Z,12.63
2024-02-16T15:16:52.080Z,13.68
2024-02-16T15:19:23.981Z,14.23
2024-02-16T15:21:56.035Z,15.07
2024-02-16T15:24:28.072Z,15.68
2024-02-16T15:26:59.988Z,16.80
2024-02-16T15:29:32.050Z,17.63
2024-02-16T15:32:04.201Z,18.65
2024-02-16T15:34:36.281Z,22.10
2024-02-16T15:37:08.098Z,19.50
2024-02-16T15:39:40.685Z,22.88
2024-02-16T15:42:14.045Z,20.83
2024-02-16T15:44:45.881Z,26.25
2024-02-16T15:47:17.642Z,35.50
2024-02-16T15:49:49.621Z,56.15
2024-02-16T15:52:21.428Z,51.17
2024-02-16T15:54:53.269Z,55.25
2024-02-16T15:57:25.150Z,40.15
2024-02-16T15:59:57.212Z,38.50
2024-02-16T16:02:29.042Z,26.25
2024-02-16T16:05:01.017Z,36.00
2024-02-16T16:07:32.857Z,37.80
2024-02-16T16:10:05.094Z,22.60
2024-02-16T16:12:36.878Z,20.95
2024-02-16T16:15:09.129Z,17.55
2024-02-16T16:17:41.037Z,21.30
2024-02-16T16:20:13.344Z,27.33
2024-02-16T16:22:45.359Z,22.73
2024-02-16T16:25:17.146Z,24.08
2024-02-16T16:27:49.234Z,30.70
2024-02-16T16:30:21.104Z,26.05
2024-02-16T16:32:53.385Z,25.48
2024-02-16T16:35:25.625Z,19.33
2024-02-16T16:38:00.609Z,19.67
2024-02-16T16:40:33.611Z,21.60
2024-02-16T16:43:05.863Z,20.88
2024-02-16T16:45:39.226Z,18.25
2024-02-16T16:48:11.368Z,18.88
2024-02-16T16:50:43.259Z,19.15
2024-02-16T16:53:15.046Z,21.35
2024-02-16T17:04:02.484Z,16.70
2024-02-16T17:06:35.197Z,18.92
2024-02-16T17:09:11.378Z,22.70
2024-02-16T17:11:43.744Z,21.60
2024-02-16T17:14:15.733Z,65.25
2024-02-16T17:16:48.806Z,54.97
2024-02-16T17:19:20.979Z,49.35
2024-02-16T17:21:53.027Z,39.80
2024-02-16T17:24:26.269Z,32.15
2024-02-16T17:26:58.813Z,27.75
2024-02-16T17:29:31.512Z,31.35
2024-02-16T17:32:03.947Z,22.48
2024-02-16T17:34:35.989Z,23.83
2024-02-16T17:37:08.038Z,23.25
2024-02-16T17:39:42.834Z,19.05
2024-02-16T17:42:16.541Z,20.35
2024-02-16T17:44:48.633Z,22.58
2024-02-16T17:47:20.532Z,19.63
2024-02-16T17:49:52.505Z,22.05
2024-02-16T17:52:24.421Z,23.27
2024-02-16T17:54:56.357Z,21.20
2024-02-16T17:57:28.430Z,27.23
2024-02-16T18:00:00.805Z,26.23
2024-02-16T18:02:39.944Z,29.73
2024-02-16T18:05:14.432Z,37.95
2024-02-16T18:07:46.673Z,34.20
2024-02-16T18:10:19.337Z,43.30
2024-02-16T18:12:51.520Z,36.28
2024-02-16T18:15:23.828Z,49.35
2024-02-16T18:17:57.594Z,43.10
2024-02-16T18:20:29.576Z,46.45
2024-02-16T18:23:01.455Z,45.42
2024-02-16T18:25:33.376Z,42.10
2024-02-16T18:28:05.678Z,50.65
2024-02-16T18:30:37.586Z,45.03
2024-02-16T18:33:09.567Z,46.42
2024-02-16T18:35:42.046Z,44.72
2024-02-16T18:38:13.906Z,45.30
2024-02-16T18:40:45.761Z,36.25
2024-02-16T18:43:17.623Z,45.78
2024-02-16T18:45:49.598Z,39.88
2024-02-16T18:48:25.810Z,46.75
2024-02-16T18:50:57.881Z,52.33
2024-02-16T18:53:30.177Z,39.22
2024-02-16T18:56:02.108Z,49.20
2024-02-16T18:58:34.040Z,39.90
2024-02-16T19:01:06.219Z,58.80
2024-02-16T19:03:38.432Z,69.75
2024-02-16T19:06:10.435Z,74.47
2024-02-16T19:08:42.424Z,69.80
2024-02-16T19:11:14.395Z,80.13
2024-02-16T19:13:46.927Z,80.03
2024-02-16T19:16:19.313Z,60.80
2024-02-16T19:18:51.357Z,62.95
2024-02-16T19:21:23.294Z,65.03
2024-02-16T19:23:55.181Z,68.75
2024-02-16T19:26:28.179Z,71.38
2024-02-16T19:29:00.418Z,66.57
2024-02-16T19:31:34.634Z,63.53
2024-02-16T19:34:06.686Z,52.42
2024-02-16T19:36:39.011Z,53.70
2024-02-16T19:39:16.863Z,50.45
2024-02-16T19:41:50.017Z,54.00
2024-02-16T19:44:23.043Z,55.33
2024-02-16T19:46:54.941Z,51.35
2024-02-16T19:49:27.038Z,48.72
2024-02-16T19:51:59.022Z,46.45
2024-02-16T19:54:31.102Z,44.97
2024-02-16T19:57:04.450Z,38.92
2024-02-16T19:59:36.488Z,39.60
2024-02-16T20:02:08.540Z,38.35
2024-02-16T20:04:40.428Z,37.08
2024-02-16T20:07:12.523Z,36.72
2024-02-16T20:09:44.492Z,41.33
2024-02-16T20:12:16.456Z,42.55
2024-02-16T20:14:49.045Z,39.88
2024-02-16T20:17:21.179Z,35.88
2024-02-16T20:19:55.073Z,40.95
2024-02-16T20:22:27.029Z,38.03
2024-02-16T20:24:58.955Z,39.28
2024-02-16T20:27:30.972Z,47.85
2024-02-16T20:30:03.467Z,38.90
2024-02-16T20:32:35.748Z,42.72
2024-02-16T20:35:08.052Z,38.95
2024-02-16T20:37:40.115Z,35.33
2024-02-16T20:40:12.454Z,37.42
2024-02-16T20:42:45.238Z,33.92
2024-02-16T20:45:17.450Z,35.95
2024-02-16T20:47:49.464Z,40.13
2024-02-16T20:50:23.400Z,34.95
2024-02-16T20:52:55.316Z,34.17
2024-02-16T20:55:27.311Z,38.00
2024-02-16T20:58:00.933Z,38.10
2024-02-16T21:00:33.074Z,36.58
2024-02-16T21:03:05.241Z,35.78
2024-02-16T21:05:37.482Z,38.47
2024-02-16T21:08:09.629Z,37.60
2024-02-16T21:10:42.108Z,34.70
2024-02-16T21:13:13.983Z,36.42
2024-02-16T21:15:47.263Z,37.72
2024-02-16T21:18:19.838Z,40.20
2024-02-16T21:20:51.907Z,39.17
2024-02-16T21:23:23.780Z,40.67
2024-02-16T21:25:55.660Z,37.25
2024-02-16T21:28:27.563Z,38.63
2024-02-16T21:30:59.427Z,38.22
2024-02-16T21:33:31.863Z,38.28
2024-02-16T21:36:11.353Z,39.40
2024-02-16T21:38:44.007Z,37.83
2024-02-16T21:41:16.954Z,36.90
2024-02-16T21:43:50.961Z,38.85
2024-02-16T21:46:27.650Z,36.65
2024-02-16T21:49:09.636Z,36.05
2024-02-16T21:51:43.678Z,35.42
2024-02-16T21:54:15.631Z,38.90
2024-02-16T21:56:47.506Z,38.72
2024-02-16T21:59:19.394Z,41.03
2024-02-16T22:01:52.593Z,41.20
2024-02-16T22:04:24.695Z,41.33
2024-02-16T22:06:56.854Z,40.55
2024-02-16T22:09:29.121Z,43.30
2024-02-16T22:12:01.188Z,40.08
2024-02-16T22:14:33.148Z,43.40
2024-02-16T22:17:05.088Z,42.20
2024-02-16T22:19:37.027Z,43.17
2024-02-16T22:22:09.082Z,36.85
2024-02-16T22:24:41.390Z,40.95
2024-02-16T22:27:13.510Z,43.13
2024-02-16T22:29:46.469Z,45.28
2024-02-16T22:32:18.930Z,47.65
2024-02-16T22:34:51.180Z,45.78
2024-02-16T22:37:23.290Z,43.25
2024-02-16T22:39:55.222Z,43.25
2024-02-16T22:42:27.223Z,49.25
2024-02-16T22:44:59.154Z,45.40
2024-02-16T22:47:31.479Z,50.00
2024-02-16T22:50:03.531Z,40.08
2024-02-16T22:52:35.513Z,43.35
2024-02-16T22:55:07.921Z,42.75
2024-02-16T22:57:39.858Z,43.13
2024-02-16T23:00:19.706Z,43.10
2024-02-16T23:02:56.002Z,50.77
2024-02-16T23:05:28.055Z,43.63
2024-02-16T23:08:00.052Z,45.15
2024-02-16T23:10:35.382Z,47.35
2024-02-16T23:13:07.294Z,45.28
2024-02-16T23:15:39.916Z,40.40
2024-02-16T23:18:12.198Z,47.88
2024-02-16T23:20:44.729Z,47.65
2024-02-16T23:23:16.675Z,47.75
2024-02-16T23:25:48.768Z,48.55
2024-02-16T23:28:21.849Z,47.50
2024-02-16T23:30:54.045Z,42.40
2024-02-16T23:33:26.031Z,45.38
2024-02-16T23:35:58.123Z,44.08
2024-02-16T23:38:30.526Z,43.63
2024-02-16T23:41:02.841Z,50.28
2024-02-16T23:43:34.729Z,45.83
2024-02-16T23:46:09.942Z,46.90
2024-02-16T23:48:42.011Z,55.72
2024-02-16T23:51:13.997Z,54.10
2024-02-16T23:53:46.101Z,49.42
2024-02-16T23:56:17.973Z,50.72
2024-02-16T23:58:49.859Z,44.83
